Time;durP1;ratioP1;P1;durP2;ratioP2;P2;SDS_P1;SDS_P2;PMS_P1;PMS_P2;Temp;Humidity;BMP_temperature;BMP_pressure;BME280_temperature;BME280_humidity;BME280_pressure;Samples;Min_cycle;Max_cycle;Signal;HPM_P1;HPM_P2
2022/01/17 00:01:32;;;;;;;0.00;0.00;;;6.20;99.90;;;;;;5037104;28;20190;-86
2022/01/17 00:03:57;;;;;;;1.08;0.35;;;6.10;99.90;;;;;;5053703;28;20047;-87
2022/01/17 00:06:24;;;;;;;0.00;0.00;;;6.80;99.90;;;;;;5053609;28;20131;-87
2022/01/17 00:08:49;;;;;;;0.00;0.00;;;6.20;99.90;;;;;;5036441;28;20064;-87
2022/01/17 00:11:19;;;;;;;0.00;0.00;;;6.30;99.90;;;;;;5053781;28;20056;-87
2022/01/17 00:13:49;;;;;;;0.00;0.00;;;6.20;99.90;;;;;;5053915;28;20063;-86
2022/01/17 00:16:23;;;;;;;0.00;0.00;;;6.30;99.90;;;;;;5036089;28;20056;-87
2022/01/17 00:21:18;;;;;;;0.00;0.00;;;6.50;99.90;;;;;;5053199;28;20053;-86
2022/01/17 00:23:44;;;;;;;0.00;0.00;;;6.50;99.90;;;;;;5053502;28;20413;-86
2022/01/17 00:26:09;;;;;;;0.00;0.00;;;6.40;99.90;;;;;;5036870;28;20051;-87
2022/01/17 00:28:35;;;;;;;0.00;0.00;;;6.20;99.90;;;;;;5053354;28;20484;-87
2022/01/17 00:31:04;;;;;;;0.00;0.00;;;5.80;99.90;;;;;;5036781;28;20060;-86
2022/01/17 00:33:31;;;;;;;0.00;0.00;;;6.10;99.90;;;;;;5036873;28;20052;-87
2022/01/17 00:35:57;;;;;;;0.30;0.30;;;6.00;99.90;;;;;;5036902;28;20049;-87
2022/01/17 00:38:23;;;;;;;2.05;1.50;;;6.30;99.90;;;;;;5037233;28;20378;-87
2022/01/17 00:40:48;;;;;;;2.83;0.70;;;6.00;99.90;;;;;;5036585;28;20041;-87
2022/01/17 00:43:14;;;;;;;0.00;0.00;;;6.00;99.90;;;;;;5035931;28;20503;-87
2022/01/17 00:45:43;;;;;;;0.00;0.00;;;6.00;99.90;;;;;;5035860;28;20202;-87
2022/01/17 00:48:09;;;;;;;0.00;0.00;;;6.00;99.90;;;;;;5053109;28;20049;-87
2022/01/17 00:50:37;;;;;;;0.00;0.00;;;6.70;99.90;;;;;;5036611;28;20088;-86
2022/01/17 00:53:04;;;;;;;0.00;0.00;;;6.20;99.90;;;;;;5053210;28;20053;-87
2022/01/17 00:55:35;;;;;;;0.00;0.00;;;5.90;99.90;;;;;;5036694;28;20049;-87
2022/01/17 00:58:00;;;;;;;0.00;0.00;;;6.00;99.90;;;;;;5036572;28;20052;-87
2022/01/17 01:00:27;;;;;;;0.00;0.00;;;7.50;99.90;;;;;;5036323;28;20045;-87
2022/01/17 01:02:53;;;;;;;0.00;0.00;;;5.90;99.90;;;;;;5036020;28;20040;-87
2022/01/17 01:05:19;;;;;;;0.20;0.17;;;5.90;99.90;;;;;;5052569;28;20044;-87
2022/01/17 01:07:45;;;;;;;0.00;0.00;;;5.90;99.90;;;;;;5035930;28;20075;-86
2022/01/17 01:10:13;;;;;;;0.00;0.00;;;5.90;99.90;;;;;;5052899;28;20079;-87
2022/01/17 01:12:46;;;;;;;26.08;1.65;;;5.90;99.90;;;;;;5035833;28;20477;-87
2022/01/17 01:15:22;;;;;;;0.75;0.75;;;5.90;99.90;;;;;;5035984;28;20053;-87
2022/01/17 01:28:15;;;;;;;0.57;0.47;;;7.60;99.90;;;;;;5057290;28;20087;-87
2022/01/17 01:30:46;;;;;;;0.00;0.00;;;5.90;99.90;;;;;;5058777;28;20072;-87
2022/01/17 01:33:16;;;;;;;0.00;0.00;;;5.90;99.90;;;;;;5042238;28;20049;-87
2022/01/17 01:35:46;;;;;;;0.00;0.00;;;5.80;99.90;;;;;;5042400;28;20080;-87
2022/01/17 01:38:12;;;;;;;0.00;0.00;;;6.00;99.90;;;;;;5042876;28;20049;-87
2022/01/17 01:40:38;;;;;;;0.00;0.00;;;5.80;99.90;;;;;;5042567;28;20056;-87
2022/01/17 01:43:04;;;;;;;2.90;0.52;;;5.80;99.90;;;;;;5058422;28;20488;-87
2022/01/17 01:45:30;;;;;;;0.00;0.00;;;5.70;99.90;;;;;;5042061;28;20045;-87
2022/01/17 01:47:56;;;;;;;0.00;0.00;;;6.00;99.90;;;;;;5042226;28;20097;-87
2022/01/17 01:50:22;;;;;;;0.00;0.00;;;5.90;99.90;;;;;;5058741;28;20041;-87
2022/01/17 01:52:48;;;;;;;0.35;0.20;;;5.70;99.90;;;;;;5041897;28;20056;-87
2022/01/17 01:55:17;;;;;;;0.00;0.00;;;5.70;99.90;;;;;;5042437;28;20044;-87
2022/01/17 01:57:44;;;;;;;0.00;0.00;;;6.20;99.90;;;;;;5042182;28;20127;-87
2022/01/17 02:00:12;;;;;;;0.00;0.00;;;5.60;99.90;;;;;;5042602;28;20045;-87
2022/01/17 02:02:37;;;;;;;0.15;0.15;;;5.60;99.90;;;;;;5042028;28;20052;-87
2022/01/17 02:05:04;;;;;;;0.00;0.00;;;5.60;99.90;;;;;;5041819;28;20037;-87
2022/01/17 02:07:30;;;;;;;0.00;0.00;;;5.50;99.90;;;;;;5042185;28;20056;-87
2022/01/17 02:09:56;;;;;;;0.00;0.00;;;5.90;99.90;;;;;;5041917;28;20057;-87
2022/01/17 02:12:23;;;;;;;0.00;0.00;;;5.60;99.90;;;;;;5041719;28;20056;-86
2022/01/17 02:14:50;;;;;;;0.00;0.00;;;5.50;99.90;;;;;;5041843;28;20099;-87
2022/01/17 02:17:19;;;;;;;0.32;0.32;;;5.50;99.90;;;;;;5042044;28;20084;-87
2022/01/17 02:19:46;;;;;;;0.00;0.00;;;5.50;99.90;;;;;;5042014;28;20145;-87
2022/01/17 02:22:15;;;;;;;0.00;0.00;;;5.60;99.90;;;;;;5059237;28;20091;-87
2022/01/17 02:24:42;;;;;;;2.60;0.63;;;5.60;99.90;;;;;;5058361;28;20072;-87
2022/01/17 02:27:07;;;;;;;0.00;0.00;;;5.70;99.90;;;;;;5042139;28;20053;-87
2022/01/17 02:29:33;;;;;;;0.00;0.00;;;5.60;99.90;;;;;;5058565;28;20041;-87
2022/01/17 02:31:59;;;;;;;0.00;0.00;;;5.40;99.90;;;;;;5058845;28;20084;-87
2022/01/17 02:34:25;;;;;;;4.22;1.20;;;5.40;99.90;;;;;;5041791;28;20040;-87
2022/01/17 02:36:50;;;;;;;0.00;0.00;;;5.50;99.90;;;;;;5042459;28;20049;-88
2022/01/17 02:39:16;;;;;;;0.00;0.00;;;5.50;99.90;;;;;;5056125;28;20361;-87
2022/01/17 02:41:45;;;;;;;0.52;0.20;;;5.40;99.90;;;;;;5038225;28;20051;-88
2022/01/17 02:44:11;;;;;;;0.00;0.00;;;5.50;99.90;;;;;;5038449;28;20428;-88
2022/01/17 02:46:37;;;;;;;0.00;0.00;;;5.50;99.90;;;;;;5038655;28;20041;-88
2022/01/17 02:49:05;;;;;;;0.00;0.00;;;5.60;99.90;;;;;;5038865;28;20045;-87
2022/01/17 02:51:32;;;;;;;0.00;0.00;;;5.40;99.90;;;;;;5038773;28;20493;-87
2022/01/17 02:53:58;;;;;;;0.10;0.10;;;5.30;99.90;;;;;;5055192;28;20055;-88
2022/01/17 02:56:24;;;;;;;0.00;0.00;;;5.60;99.90;;;;;;5038427;28;20384;-87
2022/01/17 02:58:50;;;;;;;0.00;0.00;;;5.30;99.90;;;;;;5054894;28;20044;-88
2022/01/17 03:01:19;;;;;;;0.00;0.00;;;5.40;99.90;;;;;;5038289;28;20132;-88
2022/01/17 03:03:45;;;;;;;0.00;0.00;;;5.20;99.90;;;;;;5055782;28;20420;-88
2022/01/17 03:06:11;;;;;;;0.52;0.28;;;5.60;99.90;;;;;;5038466;28;20076;-88
2022/01/17 03:08:39;;;;;;;0.00;0.00;;;5.10;99.90;;;;;;5055035;28;20049;-88
2022/01/17 03:11:06;;;;;;;0.00;0.00;;;5.00;99.90;;;;;;5055099;28;20132;-88
2022/01/17 03:13:36;;;;;;;0.00;0.00;;;5.20;99.90;;;;;;5054520;28;20405;-87
2022/01/17 03:16:05;;;;;;;0.00;0.00;;;5.00;99.90;;;;;;5037917;28;20389;-88
2022/01/17 03:18:36;;;;;;;0.00;0.00;;;5.00;99.90;;;;;;5054582;28;20132;-88
2022/01/17 03:21:03;;;;;;;0.00;0.00;;;4.70;99.90;;;;;;5038104;28;20045;-87
2022/01/17 03:23:29;;;;;;;0.00;0.00;;;5.10;99.90;;;;;;5037803;28;20090;-88
2022/01/17 03:25:56;;;;;;;0.00;0.00;;;4.90;99.90;;;;;;5037841;28;20053;-88
2022/01/17 03:28:22;;;;;;;0.13;0.13;;;4.80;99.90;;;;;;5037516;28;20049;-87
2022/01/17 03:30:48;;;;;;;0.00;0.00;;;6.40;99.90;;;;;;5054056;28;20052;-88
2022/01/17 03:33:15;;;;;;;0.10;0.10;;;4.90;99.90;;;;;;5037757;28;20430;-88
2022/01/17 03:35:41;;;;;;;0.28;0.28;;;4.80;99.90;;;;;;5054135;28;20060;-87
2022/01/17 03:38:09;;;;;;;2.33;0.40;;;4.80;99.90;;;;;;5037517;28;20060;-87
2022/01/17 03:40:36;;;;;;;0.00;0.00;;;4.80;99.90;;;;;;5054202;28;20053;-88
2022/01/17 03:43:03;;;;;;;0.30;0.30;;;4.70;99.90;;;;;;5037543;28;20499;-88
2022/01/17 03:45:29;;;;;;;0.00;0.00;;;4.70;99.90;;;;;;5037670;28;20056;-87
2022/01/17 03:47:55;;;;;;;0.10;0.10;;;4.70;99.90;;;;;;5037171;28;20047;-88
2022/01/17 03:50:23;;;;;;;0.08;0.08;;;5.70;99.90;;;;;;5037373;28;20041;-87
2022/01/17 03:52:50;;;;;;;0.35;0.00;;;5.20;99.90;;;;;;5037539;28;20049;-88
2022/01/17 03:55:20;;;;;;;0.85;0.28;;;6.00;99.90;;;;;;5054104;28;20095;-88
2022/01/17 03:57:46;;;;;;;0.00;0.00;;;4.70;99.90;;;;;;5037602;28;20053;-88
2022/01/17 04:00:26;;;;;;;0.00;0.00;;;4.80;99.90;;;;;;5037425;28;20099;-88
2022/01/17 04:02:52;;;;;;;0.20;0.20;;;4.80;99.90;;;;;;5037271;28;20053;-87
2022/01/17 04:05:19;;;;;;;0.00;0.00;;;4.90;99.90;;;;;;5037215;28;20048;-88
2022/01/17 04:07:45;;;;;;;0.00;0.00;;;4.90;99.90;;;;;;5054159;28;20044;-88
2022/01/17 04:10:12;;;;;;;0.00;0.00;;;5.40;99.90;;;;;;5037268;28;20053;-87
2022/01/17 04:12:37;;;;;;;0.00;0.00;;;4.90;99.90;;;;;;5037281;28;20045;-88
2022/01/17 04:15:04;;;;;;;0.00;0.00;;;5.40;99.90;;;;;;5054219;28;20048;-88
2022/01/17 04:17:30;;;;;;;0.00;0.00;;;5.00;99.90;;;;;;5053638;28;20136;-88
2022/01/17 04:20:06;;;;;;;0.00;0.00;;;5.20;99.90;;;;;;5053660;28;20137;-88
2022/01/17 04:22:39;;;;;;;0.00;0.00;;;5.00;99.90;;;;;;5037597;28;20063;-87
2022/01/17 04:25:07;;;;;;;0.75;0.08;;;5.30;99.90;;;;;;5053785;28;20041;-88
2022/01/17 04:27:33;;;;;;;3.33;1.85;;;5.00;99.90;;;;;;5053471;28;20476;-88
2022/01/17 04:29:59;;;;;;;0.00;0.00;;;5.00;99.90;;;;;;5053429;28;20149;-88
2022/01/17 04:32:25;;;;;;;0.00;0.00;;;5.00;99.90;;;;;;5036846;28;20128;-88
2022/01/17 04:34:51;;;;;;;1.88;0.57;;;5.00;99.90;;;;;;5036767;28;20187;-88
2022/01/17 04:37:17;;;;;;;0.00;0.00;;;4.70;99.90;;;;;;5053082;28;20477;-88
2022/01/17 04:39:43;;;;;;;0.00;0.00;;;5.00;99.90;;;;;;5036663;28;20063;-88
2022/01/17 04:42:12;;;;;;;2.58;0.25;;;4.70;99.90;;;;;;5053151;28;20049;-88
2022/01/17 04:47:29;;;;;;;0.00;0.00;;;5.00;99.90;;;;;;5053236;28;20052;-88
2022/01/17 04:49:55;;;;;;;0.00;0.00;;;4.70;99.90;;;;;;5052886;28;20048;-88
2022/01/17 04:52:21;;;;;;;0.82;0.47;;;4.80;99.90;;;;;;5052901;28;20045;-88
2022/01/17 04:54:52;;;;;;;1.35;0.95;;;4.60;99.90;;;;;;5052847;28;20044;-88
2022/01/17 04:57:20;;;;;;;0.00;0.00;;;4.70;99.90;;;;;;5052948;28;20053;-88
2022/01/17 04:59:47;;;;;;;0.00;0.00;;;4.70;99.90;;;;;;5053119;28;20067;-88
2022/01/17 05:02:13;;;;;;;0.00;0.00;;;4.80;99.90;;;;;;5035699;28;20049;-88
2022/01/17 05:04:39;;;;;;;0.00;0.00;;;4.60;99.90;;;;;;5036358;28;20041;-88
2022/01/17 05:07:08;;;;;;;0.00;0.00;;;4.70;99.90;;;;;;5035820;28;20160;-88
2022/01/17 05:09:34;;;;;;;0.00;0.00;;;5.20;99.90;;;;;;5035584;28;20060;-88
2022/01/17 05:12:00;;;;;;;0.00;0.00;;;5.80;99.90;;;;;;5052526;28;20049;-88
2022/01/17 05:14:26;;;;;;;0.00;0.00;;;4.70;99.90;;;;;;5052656;28;20144;-88
2022/01/17 05:17:00;;;;;;;0.10;0.05;;;5.10;99.90;;;;;;5035972;28;20052;-88
2022/01/17 05:22:10;;;;;;;0.00;0.00;;;4.80;99.90;;;;;;5052967;28;20041;-88
2022/01/17 05:24:36;;;;;;;0.00;0.00;;;4.90;99.90;;;;;;5036051;28;20036;-88
2022/01/17 05:27:02;;;;;;;0.00;0.00;;;5.10;99.90;;;;;;5052454;28;20431;-88
2022/01/17 05:29:28;;;;;;;0.00;0.00;;;5.00;99.90;;;;;;5052589;28;20037;-88
2022/01/17 05:31:53;;;;;;;0.00;0.00;;;5.10;99.90;;;;;;5035938;28;20099;-88
2022/01/17 05:34:19;;;;;;;0.00;0.00;;;5.00;99.90;;;;;;5035749;28;20132;-88
2022/01/17 05:36:45;;;;;;;0.05;0.05;;;5.20;99.90;;;;;;5052758;28;20087;-88
2022/01/17 05:39:10;;;;;;;0.00;0.00;;;5.20;99.90;;;;;;5036262;28;20123;-88
2022/01/17 05:41:37;;;;;;;0.43;0.35;;;5.70;99.90;;;;;;5035675;28;20049;-88
2022/01/17 05:44:02;;;;;;;0.00;0.00;;;5.50;99.90;;;;;;5035875;28;20404;-88
2022/01/17 05:46:28;;;;;;;0.00;0.00;;;5.30;99.90;;;;;;5052845;28;20041;-89
2022/01/17 05:48:54;;;;;;;0.73;0.28;;;5.30;99.90;;;;;;5035661;28;20048;-88
2022/01/17 05:51:19;;;;;;;0.00;0.00;;;6.30;99.90;;;;;;5035938;28;20049;-88
2022/01/17 05:53:45;;;;;;;0.00;0.00;;;5.40;99.90;;;;;;5036080;28;20080;-88
2022/01/17 05:56:11;;;;;;;0.00;0.00;;;5.40;99.90;;;;;;5051910;28;20124;-88
2022/01/17 05:58:36;;;;;;;0.00;0.00;;;5.50;99.90;;;;;;5035912;28;20045;-89
2022/01/17 06:01:02;;;;;;;0.45;0.45;;;5.90;99.90;;;;;;5036016;28;20110;-88
2022/01/17 06:03:28;;;;;;;0.00;0.00;;;5.50;99.90;;;;;;5035666;28;20481;-89
2022/01/17 06:05:54;;;;;;;0.00;0.00;;;5.50;99.90;;;;;;5053201;28;20041;-88
2022/01/17 06:08:20;;;;;;;0.20;0.20;;;5.50;99.90;;;;;;5036072;28;20071;-89
2022/01/17 06:10:45;;;;;;;0.10;0.00;;;5.60;99.90;;;;;;5036190;28;20408;-89
2022/01/17 06:13:11;;;;;;;0.00;0.00;;;5.50;99.90;;;;;;5053042;28;20038;-89
2022/01/17 06:15:37;;;;;;;0.00;0.00;;;5.60;99.90;;;;;;5039594;28;20045;-89
2022/01/17 06:18:03;;;;;;;0.00;0.00;;;5.50;99.90;;;;;;5040811;28;20045;-88
2022/01/17 06:20:28;;;;;;;0.00;0.00;;;5.50;99.90;;;;;;5040625;28;20052;-88
2022/01/17 06:22:54;;;;;;;0.00;0.00;;;5.50;99.90;;;;;;5056589;28;20052;-89
2022/01/17 06:25:20;;;;;;;0.00;0.00;;;5.60;99.90;;;;;;5056254;28;20041;-88
2022/01/17 06:27:48;;;;;;;0.10;0.00;;;5.10;99.90;;;;;;5039603;28;20056;-89
2022/01/17 06:30:14;;;;;;;0.00;0.00;;;5.60;99.90;;;;;;5039616;28;20469;-89
2022/01/17 06:32:41;;;;;;;0.75;0.75;;;5.70;99.90;;;;;;5056828;28;20056;-89
2022/01/17 06:35:07;;;;;;;0.35;0.35;;;5.50;99.90;;;;;;5054926;28;20061;-88
2022/01/17 06:37:34;;;;;;;0.10;0.10;;;5.70;99.90;;;;;;5055905;28;20052;-89
2022/01/17 06:40:00;;;;;;;0.00;0.00;;;5.70;99.90;;;;;;5039100;28;20068;-88
2022/01/17 06:42:26;;;;;;;0.00;0.00;;;5.70;99.90;;;;;;5056180;28;20048;-88
2022/01/17 06:44:52;;;;;;;0.00;0.00;;;5.90;99.90;;;;;;5039467;28;20052;-88
2022/01/17 06:47:18;;;;;;;0.00;0.00;;;5.80;99.90;;;;;;5039410;28;20072;-88
2022/01/17 06:49:43;;;;;;;3.30;0.40;;;5.70;99.90;;;;;;5039182;28;20513;-88
2022/01/17 06:52:09;;;;;;;0.55;0.55;;;5.70;99.90;;;;;;5039301;28;20040;-89
2022/01/17 06:54:35;;;;;;;0.68;0.68;;;5.80;99.90;;;;;;5057462;28;20041;-88
2022/01/17 06:57:00;;;;;;;0.05;0.05;;;5.90;99.90;;;;;;5039038;28;20483;-88
2022/01/17 06:59:26;;;;;;;1.38;1.05;;;5.80;99.90;;;;;;5055691;28;20048;-87
2022/01/17 07:01:52;;;;;;;0.00;0.00;;;5.70;99.90;;;;;;5055234;28;20045;-88
2022/01/17 07:04:17;;;;;;;0.00;0.00;;;5.80;99.90;;;;;;5039292;28;20114;-88
2022/01/17 07:06:43;;;;;;;0.28;0.28;;;5.90;99.90;;;;;;5039049;28;20153;-87
2022/01/17 07:09:14;;;;;;;0.00;0.00;;;6.20;99.90;;;;;;5055009;28;20067;-87
2022/01/17 07:11:41;;;;;;;0.93;0.38;;;5.90;99.90;;;;;;5038745;28;20052;-88
2022/01/17 07:14:08;;;;;;;0.30;0.08;;;5.90;99.90;;;;;;5056194;28;20397;-88
2022/01/17 07:16:39;;;;;;;0.10;0.00;;;5.90;99.90;;;;;;5039153;28;20048;-89
2022/01/17 07:19:06;;;;;;;0.10;0.00;;;6.00;99.90;;;;;;5038841;28;20049;-93
2022/01/17 07:21:32;;;;;;;1.20;0.65;;;6.00;99.90;;;;;;5055585;28;20098;-92
2022/01/17 07:24:02;;;;;;;9.38;1.83;;;6.00;99.90;;;;;;5038481;28;20044;-91
2022/01/17 07:26:29;;;;;;;0.32;0.32;;;6.00;99.90;;;;;;5038088;28;20480;-91
2022/01/17 07:29:08;;;;;;;0.45;0.45;;;6.00;99.90;;;;;;5039274;28;20484;-92
2022/01/17 07:31:38;;;;;;;0.15;0.15;;;6.10;99.90;;;;;;5040023;28;20049;-92
2022/01/17 07:34:11;;;;;;;0.00;0.00;;;6.10;99.90;;;;;;5055854;28;20043;-92
2022/01/17 07:36:37;;;;;;;0.00;0.00;;;6.20;99.90;;;;;;5024940;28;20049;-93
2022/01/17 07:39:04;;;;;;;0.00;0.00;;;6.10;99.90;;;;;;5038885;28;20076;-91
2022/01/17 07:41:29;;;;;;;0.57;0.57;;;6.10;99.90;;;;;;5038719;28;20088;-92
2022/01/17 07:43:56;;;;;;;0.30;0.30;;;6.10;99.90;;;;;;5038246;28;20492;-93
2022/01/17 07:46:35;;;;;;;0.85;0.47;;;6.30;99.90;;;;;;5038748;28;20041;-94
2022/01/17 07:49:10;;;;;;;0.00;0.00;;;6.20;99.90;;;;;;5038500;28;20052;-94
2022/01/17 07:51:43;;;;;;;0.00;0.00;;;6.20;99.90;;;;;;5038740;28;20079;-93
2022/01/17 07:54:10;;;;;;;2.33;0.47;;;6.10;99.90;;;;;;5038182;28;20052;-92
2022/01/17 07:56:37;;;;;;;0.00;0.00;;;6.10;99.90;;;;;;5038842;28;20052;-93
2022/01/17 07:59:04;;;;;;;0.93;0.68;;;6.10;99.90;;;;;;5037986;28;20053;-94
2022/01/17 08:01:30;;;;;;;0.00;0.00;;;6.60;99.90;;;;;;5037697;28;20135;-89
2022/01/17 08:03:56;;;;;;;0.00;0.00;;;6.20;99.90;;;;;;5038304;28;20113;-92
2022/01/17 08:06:25;;;;;;;0.00;0.00;;;6.20;99.90;;;;;;5038186;28;20045;-90
2022/01/17 08:08:51;;;;;;;0.10;0.10;;;6.20;99.90;;;;;;5037189;28;20049;-92
2022/01/17 08:11:18;;;;;;;0.05;0.05;;;6.20;99.90;;;;;;5037844;28;20361;-92
2022/01/17 08:13:44;;;;;;;0.00;0.00;;;6.20;99.90;;;;;;5037896;28;20194;-91
2022/01/17 08:16:10;;;;;;;0.05;0.05;;;6.30;99.90;;;;;;5026680;28;20076;-93
2022/01/17 08:18:35;;;;;;;0.00;0.00;;;6.30;99.90;;;;;;5037387;28;20393;-91
2022/01/17 08:21:04;;;;;;;0.00;0.00;;;6.30;99.90;;;;;;5037391;28;20045;-90
2022/01/17 08:23:30;;;;;;;0.05;0.00;;;6.30;99.90;;;;;;5038285;28;20124;-91
2022/01/17 08:25:56;;;;;;;0.00;0.00;;;6.30;99.90;;;;;;5037864;28;20069;-90
2022/01/17 08:28:31;;;;;;;0.00;0.00;;;6.30;99.90;;;;;;5037939;28;20037;-90
2022/01/17 08:30:56;;;;;;;2.10;0.55;;;6.30;99.90;;;;;;5054807;28;20491;-88
2022/01/17 08:33:23;;;;;;;0.15;0.15;;;6.30;99.90;;;;;;5053503;28;20049;-87
2022/01/17 08:35:48;;;;;;;0.25;0.15;;;6.40;99.90;;;;;;5037008;28;20052;-87
2022/01/17 08:38:14;;;;;;;0.00;0.00;;;6.40;99.90;;;;;;5052539;28;20154;-87
2022/01/17 08:40:40;;;;;;;3.92;0.85;;;6.90;99.90;;;;;;5036907;28;20045;-88
2022/01/17 08:43:07;;;;;;;0.00;0.00;;;6.70;99.90;;;;;;5037399;28;20037;-87
2022/01/17 08:45:33;;;;;;;0.68;0.68;;;6.40;99.90;;;;;;5054537;28;20053;-87
2022/01/17 08:47:59;;;;;;;1.88;0.57;;;6.60;99.90;;;;;;5037383;28;20044;-88
2022/01/17 08:50:26;;;;;;;0.28;0.28;;;6.60;99.90;;;;;;5053498;28;20122;-87
2022/01/17 08:52:52;;;;;;;0.40;0.40;;;7.20;99.90;;;;;;5037165;28;20045;-87
2022/01/17 08:55:21;;;;;;;0.20;0.20;;;7.10;99.90;;;;;;5053936;28;20125;-87
2022/01/17 08:57:46;;;;;;;0.30;0.30;;;6.50;99.90;;;;;;5037737;28;20159;-87
2022/01/17 09:00:16;;;;;;;0.00;0.00;;;6.40;99.90;;;;;;5053640;28;20080;-88
2022/01/17 09:02:42;;;;;;;3.92;1.27;;;6.50;99.90;;;;;;5036702;28;20045;-88
2022/01/17 09:05:08;;;;;;;0.15;0.15;;;6.70;99.90;;;;;;5036877;28;20033;-88
2022/01/17 09:07:34;;;;;;;0.00;0.00;;;6.60;99.90;;;;;;5052835;28;20553;-90
2022/01/17 09:10:00;;;;;;;0.00;0.00;;;6.60;99.90;;;;;;5036406;28;20056;-87
2022/01/17 09:12:26;;;;;;;4.75;1.73;;;7.50;99.90;;;;;;5053648;28;20374;-88
2022/01/17 09:14:51;;;;;;;0.03;0.03;;;6.60;99.90;;;;;;5036228;28;20048;-88
2022/01/17 09:17:18;;;;;;;0.35;0.35;;;7.00;99.90;;;;;;5036752;28;20040;-88
2022/01/17 09:19:45;;;;;;;0.00;0.00;;;6.80;99.90;;;;;;5053954;28;20045;-88
2022/01/17 09:22:12;;;;;;;0.55;0.43;;;6.70;99.90;;;;;;5037210;28;20472;-88
2022/01/17 09:24:39;;;;;;;0.30;0.30;;;7.20;99.90;;;;;;5053883;28;20412;-88
2022/01/17 09:27:06;;;;;;;0.08;0.08;;;6.50;99.90;;;;;;5052771;28;20073;-88
2022/01/17 09:29:33;;;;;;;3.95;0.65;;;6.80;99.90;;;;;;5036087;28;20087;-88
2022/01/17 09:31:59;;;;;;;0.00;0.00;;;6.90;99.90;;;;;;5036805;28;20037;-88
2022/01/17 09:34:26;;;;;;;0.00;0.00;;;6.90;99.90;;;;;;5036604;28;20045;-88
2022/01/17 09:36:52;;;;;;;1.20;0.60;;;6.90;99.90;;;;;;5036445;28;20053;-88
2022/01/17 09:39:18;;;;;;;1.33;0.45;;;7.10;99.90;;;;;;5036690;28;20055;-88
2022/01/17 09:41:44;;;;;;;0.38;0.38;;;7.00;99.90;;;;;;5036269;28;20459;-88
2022/01/17 09:44:10;;;;;;;1.23;0.70;;;7.10;99.90;;;;;;5035954;28;20036;-87
2022/01/17 09:46:44;;;;;;;0.95;0.88;;;7.70;99.90;;;;;;5052793;28;20044;-87
2022/01/17 09:49:20;;;;;;;0.00;0.00;;;7.50;99.90;;;;;;5037720;28;20056;-87
2022/01/17 09:54:26;;;;;;;0.50;0.50;;;7.30;99.90;;;;;;5057178;28;20170;-87
2022/01/17 09:56:58;;;;;;;0.43;0.43;;;7.40;99.90;;;;;;5057077;28;20052;-88
2022/01/17 09:59:25;;;;;;;0.00;0.00;;;7.40;99.90;;;;;;5056726;28;20059;-87
2022/01/17 10:01:51;;;;;;;13.25;1.60;;;7.50;99.90;;;;;;5040147;28;20056;-88
2022/01/17 10:04:18;;;;;;;0.00;0.00;;;7.80;99.90;;;;;;5039961;28;20048;-88
2022/01/17 10:06:54;;;;;;;2.35;0.90;;;7.70;99.90;;;;;;5039971;28;20154;-87
2022/01/17 10:09:21;;;;;;;4.38;1.77;;;7.80;99.90;;;;;;5039859;28;20379;-87
2022/01/17 10:12:03;;;;;;;0.00;0.00;;;7.80;99.90;;;;;;5056463;28;20057;-88
2022/01/17 10:14:35;;;;;;;0.00;0.00;;;7.80;99.90;;;;;;5039572;28;20048;-88
2022/01/17 10:17:03;;;;;;;2.78;0.70;;;7.90;99.90;;;;;;5039762;28;20140;-88
2022/01/17 10:19:28;;;;;;;1.30;0.98;;;7.90;99.90;;;;;;5040345;28;20473;-88
2022/01/17 10:21:57;;;;;;;0.08;0.00;;;7.90;99.90;;;;;;5039655;28;20194;-88
2022/01/17 10:35:31;;;;;;;0.32;0.32;;;8.20;99.90;;;;;;4979414;28;20498;-88
2022/01/17 10:38:06;;;;;;;1.75;0.30;;;8.20;99.90;;;;;;4995880;28;20086;-88
2022/01/17 10:40:43;;;;;;;0.28;0.22;;;8.30;99.90;;;;;;4994862;28;20042;-87
2022/01/17 10:43:28;;;;;;;0.00;0.00;;;8.30;99.90;;;;;;4976613;28;20051;-87
2022/01/17 10:45:56;;;;;;;2.20;0.93;;;8.40;99.90;;;;;;4993124;28;20141;-87
2022/01/17 10:48:31;;;;;;;0.15;0.15;;;8.40;99.90;;;;;;4978506;28;20429;-87
2022/01/17 10:50:58;;;;;;;0.85;0.85;;;8.50;99.90;;;;;;4986736;28;20061;-87
2022/01/17 10:53:24;;;;;;;0.00;0.00;;;8.50;99.90;;;;;;4978297;28;20042;-87
2022/01/17 10:55:53;;;;;;;2.15;1.05;;;8.60;99.90;;;;;;4970688;28;20047;-88
2022/01/17 10:58:25;;;;;;;0.73;0.65;;;8.70;99.90;;;;;;4978254;28;20437;-87
2022/01/17 11:00:59;;;;;;;1.67;0.73;;;8.90;99.90;;;;;;4975637;28;20097;-87
2022/01/17 11:03:30;;;;;;;0.30;0.30;;;9.00;99.90;;;;;;4983874;28;20554;-86
2022/01/17 11:06:00;;;;;;;0.30;0.30;;;9.30;99.90;;;;;;4986372;28;20124;-87
2022/01/17 11:08:29;;;;;;;0.00;0.00;;;9.70;99.90;;;;;;5001616;28;20049;-87
2022/01/17 11:10:59;;;;;;;2.22;1.08;;;10.00;99.90;;;;;;5054381;28;20507;-88
2022/01/17 11:13:29;;;;;;;1.00;0.73;;;10.50;99.90;;;;;;5038053;28;20496;-87
2022/01/17 11:15:57;;;;;;;0.25;0.25;;;10.30;99.90;;;;;;5038048;28;20033;-87
2022/01/17 11:18:27;;;;;;;0.52;0.43;;;10.10;99.90;;;;;;5037621;28;20122;-87
2022/01/17 11:20:58;;;;;;;0.00;0.00;;;10.30;99.90;;;;;;5037652;28;20045;-87
2022/01/17 11:23:26;;;;;;;1.02;1.02;;;10.00;99.90;;;;;;5054120;28;20477;-87
2022/01/17 11:25:55;;;;;;;0.20;0.20;;;9.70;99.90;;;;;;5038403;28;20131;-87
2022/01/17 11:28:31;;;;;;;2.20;1.00;;;9.30;99.90;;;;;;5055078;28;20087;-86
2022/01/17 11:31:00;;;;;;;0.00;0.00;;;9.50;99.90;;;;;;5038202;28;20460;-87
2022/01/17 11:33:26;;;;;;;1.45;1.35;;;9.40;99.90;;;;;;5054717;28;20083;-87
2022/01/17 11:35:53;;;;;;;1.65;1.17;;;9.40;99.90;;;;;;5037825;28;20481;-87
2022/01/17 11:38:24;;;;;;;2.03;1.17;;;9.30;99.90;;;;;;5053938;28;20049;-87
2022/01/17 11:40:51;;;;;;;0.75;0.65;;;9.30;99.90;;;;;;5037785;28;20400;-86
2022/01/17 11:43:35;;;;;;;1.55;0.95;;;9.30;99.90;;;;;;5054216;28;20496;-86
2022/01/17 11:46:17;;;;;;;2.60;0.75;;;9.40;99.90;;;;;;5054825;28;20049;-86
2022/01/17 11:49:05;;;;;;;0.47;0.47;;;9.30;99.90;;;;;;5053789;28;20045;-87
2022/01/17 11:51:45;;;;;;;0.20;0.10;;;9.30;99.90;;;;;;5034887;28;20091;-89
2022/01/17 11:54:19;;;;;;;3.70;1.80;;;9.60;99.90;;;;;;5017903;28;20041;-87
2022/01/17 11:57:05;;;;;;;2.40;0.85;;;10.10;99.90;;;;;;5017608;28;20046;-87
2022/01/17 11:59:41;;;;;;;0.00;0.00;;;10.30;99.90;;;;;;5018279;28;20461;-86
2022/01/17 12:02:16;;;;;;;0.00;0.00;;;10.30;99.90;;;;;;5017636;28;20477;-87
2022/01/17 12:05:02;;;;;;;2.83;1.33;;;10.20;99.90;;;;;;5033955;28;20481;-86
2022/01/17 12:07:36;;;;;;;8.38;1.38;;;10.20;99.90;;;;;;5034108;28;20059;-86
2022/01/17 12:10:11;;;;;;;4.03;1.30;;;10.10;99.90;;;;;;5017524;28;20397;-86
2022/01/17 12:12:37;;;;;;;2.63;1.88;;;10.00;99.90;;;;;;5017692;28;20049;-86
2022/01/17 12:15:10;;;;;;;0.22;0.03;;;10.00;99.90;;;;;;5018308;28;20049;-86
2022/01/17 12:17:36;;;;;;;0.40;0.40;;;10.20;99.90;;;;;;5017507;28;20053;-86
2022/01/17 12:20:09;;;;;;;1.05;1.05;;;10.50;99.90;;;;;;5033559;28;20041;-86
2022/01/17 12:22:47;;;;;;;0.00;0.00;;;10.50;99.90;;;;;;5033690;28;20045;-86
2022/01/17 12:25:26;;;;;;;0.10;0.08;;;10.90;99.90;;;;;;5033756;28;20080;-87
2022/01/17 12:28:18;;;;;;;2.70;1.73;;;10.80;99.90;;;;;;5033735;28;20100;-86
2022/01/17 12:30:50;;;;;;;0.10;0.10;;;10.70;99.90;;;;;;5034031;28;20053;-87
2022/01/17 12:33:28;;;;;;;1.45;0.40;;;10.60;99.90;;;;;;5034560;28;20402;-87
2022/01/17 12:35:56;;;;;;;0.25;0.25;;;10.40;99.90;;;;;;5034154;28;20073;-87
2022/01/17 12:38:39;;;;;;;0.85;0.85;;;10.20;99.90;;;;;;5017038;28;20048;-87
2022/01/17 12:41:06;;;;;;;1.17;0.63;;;10.10;99.90;;;;;;5018066;28;20138;-87
2022/01/17 12:43:35;;;;;;;0.10;0.10;;;10.00;99.90;;;;;;5016889;28;20041;-87
2022/01/17 12:46:08;;;;;;;0.52;0.52;;;10.00;99.90;;;;;;5016992;28;20448;-87
2022/01/17 12:48:36;;;;;;;4.55;0.90;;;9.90;99.90;;;;;;5017065;28;20433;-87
2022/01/17 12:51:06;;;;;;;4.65;1.42;;;9.90;99.90;;;;;;5033133;28;20481;-87
2022/01/17 12:53:32;;;;;;;0.00;0.00;;;9.90;99.90;;;;;;5033744;28;20045;-87
2022/01/17 12:56:05;;;;;;;1.05;0.85;;;9.90;99.90;;;;;;5016709;28;20079;-88
2022/01/17 12:58:33;;;;;;;1.15;0.10;;;10.00;99.90;;;;;;5033544;28;20041;-87
2022/01/17 13:01:01;;;;;;;0.80;0.30;;;10.20;99.90;;;;;;5016504;28;20041;-87
2022/01/17 13:03:32;;;;;;;0.73;0.68;;;10.30;99.90;;;;;;5016895;28;20473;-91
2022/01/17 13:05:59;;;;;;;0.60;0.47;;;10.10;99.90;;;;;;5033383;28;20045;-87
2022/01/17 13:08:26;;;;;;;5.00;0.88;;;10.10;99.90;;;;;;5033035;28;20436;-87
2022/01/17 13:10:52;;;;;;;0.70;0.57;;;10.10;99.90;;;;;;5016400;28;20053;-87
2022/01/17 13:13:19;;;;;;;0.00;0.00;;;10.00;99.90;;;;;;5049469;28;20049;-87
2022/01/17 13:16:01;;;;;;;0.03;0.03;;;10.40;99.90;;;;;;5033141;28;20045;-85
2022/01/17 13:18:29;;;;;;;0.75;0.47;;;9.90;99.90;;;;;;5017028;28;20041;-87
2022/01/17 13:20:56;;;;;;;0.25;0.25;;;9.90;99.90;;;;;;5016400;28;20517;-87
2022/01/17 13:23:31;;;;;;;0.38;0.30;;;9.80;99.90;;;;;;5016341;28;20052;-86
2022/01/17 13:25:57;;;;;;;0.00;0.00;;;9.80;99.90;;;;;;5016811;28;20104;-87
2022/01/17 13:28:23;;;;;;;1.17;0.10;;;10.00;99.90;;;;;;5016412;28;20489;-87
2022/01/17 13:30:49;;;;;;;0.00;0.00;;;9.80;99.90;;;;;;5032428;28;20175;-87
2022/01/17 13:33:15;;;;;;;0.40;0.30;;;9.80;99.90;;;;;;5033237;28;20048;-87